Time;durP1;ratioP1;P1;durP2;ratioP2;P2;SDS_P1;SDS_P2;PMS_P1;PMS_P2;Temp;Humidity;BMP_temperature;BMP_pressure;BME280_temperature;BME280_humidity;BME280_pressure;Samples;Min_cycle;Max_cycle;Signal;HPM_P1;HPM_P2
2022/02/06 00:00:00;;;;;;;;;;;;;;;1.82;79.61;97278.59;5073230;28;19917;-63
2022/02/06 00:02:34;;;;;;;;;;;;;;;1.85;78.86;97270.50;5060628;28;19916;-63
2022/02/06 00:05:00;;;;;;;;;;;;;;;1.76;79.84;97268.88;5053575;28;20350;-63
2022/02/06 00:07:25;;;;;;;;;;;;;;;1.89;79.42;97258.91;5036458;28;19917;-63
2022/02/06 00:09:50;;;;;;;;;;;;;;;1.89;79.66;97256.31;5065348;28;19924;-64
2022/02/06 00:12:15;;;;;;;;;;;;;;;1.86;79.00;97259.19;5072286;28;19916;-63
2022/02/06 00:14:41;;;;;;;;;;;;;;;1.88;79.24;97249.53;5072789;28;19916;-63
2022/02/06 00:17:07;;;;;;;;;;;;;;;1.99;78.62;97253.56;5064905;28;19970;-63
2022/02/06 00:19:33;;;;;;;;;;;;;;;1.97;78.63;97248.53;5053152;28;19920;-63
2022/02/06 00:22:00;;;;;;;;;;;;;;;1.87;78.94;97239.34;5065916;28;19966;-63
2022/02/06 00:24:55;;;;;;;;;;;;;;;1.86;79.57;97237.72;5053867;28;19916;-63
2022/02/06 00:27:23;;;;;;;;;;;;;;;1.91;79.43;97228.50;5061183;28;19916;-63
2022/02/06 00:29:56;;;;;;;;;;;;;;;1.96;79.28;97228.03;5061242;28;19917;-63
2022/02/06 00:32:42;;;;;;;;;;;;;;;1.93;79.88;97228.34;5053112;28;19916;-64
2022/02/06 00:40:37;;;;;;;;;;;;;;;2.04;79.58;97223.66;5071880;28;19923;-65
2022/02/06 00:43:03;;;;;;;;;;;;;;;2.07;79.88;97222.53;5059499;28;19935;-63
2022/02/06 00:45:28;;;;;;;;;;;;;;;2.08;79.73;97213.81;5072063;28;19912;-63
2022/02/06 00:47:53;;;;;;;;;;;;;;;1.99;80.34;97207.03;5058512;28;19917;-63
2022/02/06 00:50:19;;;;;;;;;;;;;;;2.05;80.23;97203.81;5053490;28;19916;-63
2022/02/06 00:52:54;;;;;;;;;;;;;;;2.08;79.91;97206.03;5053608;28;19928;-63
2022/02/06 00:55:19;;;;;;;;;;;;;;;2.06;80.00;97202.84;5053229;28;19916;-63
2022/02/06 00:57:44;;;;;;;;;;;;;;;2.06;80.11;97205.41;5052741;28;20054;-65
2022/02/06 01:00:10;;;;;;;;;;;;;;;2.13;80.31;97200.38;5053033;28;19936;-63
2022/02/06 01:02:35;;;;;;;;;;;;;;;2.14;79.51;97196.81;5065536;28;20284;-63
2022/02/06 01:05:01;;;;;;;;;;;;;;;2.20;79.56;97186.66;5052710;28;19917;-63
2022/02/06 01:07:26;;;;;;;;;;;;;;;2.19;79.88;97174.69;5052935;28;19921;-63
2022/02/06 01:09:51;;;;;;;;;;;;;;;2.20;79.66;97176.31;5053186;28;20243;-63
2022/02/06 01:12:21;;;;;;;;;;;;;;;2.28;79.61;97186.66;5064040;28;19916;-63
2022/02/06 01:15:02;;;;;;;;;;;;;;;2.29;78.96;97177.91;5053292;28;19923;-63
2022/02/06 01:17:34;;;;;;;;;;;;;;;2.29;79.34;97174.50;5052868;28;19917;-63
2022/02/06 01:20:05;;;;;;;;;;;;;;;2.20;79.85;97176.31;5052442;28;19923;-63
2022/02/06 01:22:33;;;;;;;;;;;;;;;2.24;79.58;97174.19;5064755;28;20365;-63
2022/02/06 01:25:04;;;;;;;;;;;;;;;2.29;79.71;97164.16;5052665;28;20265;-63
2022/02/06 01:30:44;;;;;;;;;;;;;;;2.43;79.03;97166.06;5008142;28;19912;-63
2022/02/06 01:33:18;;;;;;;;;;;;;;;2.32;79.62;97169.81;5058393;28;19920;-64
2022/02/06 01:35:52;;;;;;;;;;;;;;;2.51;78.56;97159.09;5076004;28;19954;-63
2022/02/06 01:38:37;;;;;;;;;;;;;;;2.48;79.05;97167.19;5075951;28;19917;-63
2022/02/06 01:41:16;;;;;;;;;;;;;;;2.37;79.53;97156.38;5064961;28;20404;-64
2022/02/06 01:43:50;;;;;;;;;;;;;;;2.33;79.62;97168.84;5075739;28;19916;-63
2022/02/06 02:08:21;;;;;;;;;;;;;;;2.58;78.32;97161.00;5075349;28;19989;-63
2022/02/06 02:47:10;;;;;;;;;;;;;;;2.47;78.31;97094.91;5073846;28;20013;-63
2022/02/06 02:49:35;;;;;;;;;;;;;;;2.45;78.20;97086.53;5056254;28;19920;-63
2022/02/06 02:52:06;;;;;;;;;;;;;;;2.41;79.04;97082.66;5056342;28;19935;-63
2022/02/06 02:54:33;;;;;;;;;;;;;;;2.51;78.71;97073.72;5071953;28;19942;-63
2022/02/06 02:57:16;;;;;;;;;;;;;;;2.66;77.76;97067.84;5074723;28;19912;-63
2022/02/06 03:00:17;;;;;;;;;;;;;;;2.54;77.98;97064.81;5074455;28;19916;-63
2022/02/06 03:02:42;;;;;;;;;;;;;;;2.65;77.81;97050.69;5055541;28;19923;-63
2022/02/06 03:05:07;;;;;;;;;;;;;;;2.67;77.97;97057.31;5074156;28;19916;-63
2022/02/06 03:07:32;;;;;;;;;;;;;;;2.59;78.34;97047.00;5074034;28;19927;-63
2022/02/06 03:09:59;;;;;;;;;;;;;;;2.60;78.22;97040.88;5073682;28;19917;-63
2022/02/06 03:12:27;;;;;;;;;;;;;;;2.54;78.19;97036.38;5070050;28;20373;-63
2022/02/06 03:15:01;;;;;;;;;;;;;;;2.62;78.51;97022.59;5073734;28;19916;-63
2022/02/06 03:17:38;;;;;;;;;;;;;;;2.60;78.52;97024.53;5073766;28;19923;-63
2022/02/06 03:20:09;;;;;;;;;;;;;;;2.70;78.23;97009.59;5073457;28;20314;-63
2022/02/06 03:22:47;;;;;;;;;;;;;;;2.69;77.95;97001.00;5059204;28;19928;-63
2022/02/06 03:25:18;;;;;;;;;;;;;;;2.64;78.15;96995.56;5054248;28;20273;-63
2022/02/06 03:27:43;;;;;;;;;;;;;;;2.59;78.25;96987.50;5060643;28;19927;-63
2022/02/06 03:30:09;;;;;;;;;;;;;;;2.67;78.25;96986.66;5074151;28;19916;-63
2022/02/06 03:32:34;;;;;;;;;;;;;;;2.66;78.29;96988.44;5059825;28;19924;-63
2022/02/06 03:35:00;;;;;;;;;;;;;;;2.57;78.75;96989.44;5053751;28;19924;-63
2022/02/06 03:37:25;;;;;;;;;;;;;;;2.59;78.85;96989.28;5053776;28;20377;-63
2022/02/06 03:39:53;;;;;;;;;;;;;;;2.67;78.57;96997.00;5053460;28;19917;-63
2022/02/06 03:42:18;;;;;;;;;;;;;;;2.66;78.42;96992.81;5047099;28;20300;-63
2022/02/06 03:44:50;;;;;;;;;;;;;;;2.64;79.03;96997.34;5073323;28;19924;-63
2022/02/06 03:47:18;;;;;;;;;;;;;;;2.79;78.27;97003.38;5073180;28;19920;-65
2022/02/06 03:50:00;;;;;;;;;;;;;;;2.80;78.58;96990.25;5073572;28;19955;-63
2022/02/06 03:52:32;;;;;;;;;;;;;;;2.65;79.02;96997.16;5061341;28;19924;-63
2022/02/06 03:54:57;;;;;;;;;;;;;;;2.78;78.89;96994.03;5068936;28;19916;-63
2022/02/06 03:57:22;;;;;;;;;;;;;;;2.70;79.15;96999.22;5055058;28;19974;-63
2022/02/06 03:59:48;;;;;;;;;;;;;;;2.80;79.21;96998.03;5072885;28;20357;-63
2022/02/06 04:02:13;;;;;;;;;;;;;;;2.72;78.92;96985.16;5072733;28;20282;-65
2022/02/06 04:04:38;;;;;;;;;;;;;;;2.73;79.44;96988.56;5072673;28;20008;-63
2022/02/06 04:07:10;;;;;;;;;;;;;;;2.92;77.88;96983.72;5053721;28;19916;-63
2022/02/06 04:09:42;;;;;;;;;;;;;;;2.83;78.38;96977.00;5073094;28;20006;-63
2022/02/06 04:12:10;;;;;;;;;;;;;;;2.89;78.63;96965.16;5072896;28;19962;-63
2022/02/06 04:14:43;;;;;;;;;;;;;;;2.91;78.39;96969.16;5072434;28;20285;-63
2022/02/06 04:17:21;;;;;;;;;;;;;;;2.93;78.90;96962.03;5068852;28;19923;-63
2022/02/06 04:19:46;;;;;;;;;;;;;;;2.95;78.74;96950.69;5062919;28;19920;-64
2022/02/06 04:22:12;;;;;;;;;;;;;;;2.99;78.21;96949.38;5072793;28;20335;-63
2022/02/06 04:24:37;;;;;;;;;;;;;;;2.96;78.17;96936.75;5072746;28;19971;-64
2022/02/06 04:27:02;;;;;;;;;;;;;;;2.91;77.88;96947.63;5068688;28;19920;-63
2022/02/06 04:29:28;;;;;;;;;;;;;;;2.98;78.71;96942.56;5053012;28;19916;-63
2022/02/06 04:31:53;;;;;;;;;;;;;;;3.05;78.08;96951.25;5053245;28;19924;-63
2022/02/06 04:34:24;;;;;;;;;;;;;;;3.02;78.48;96944.63;5052983;28;19963;-63
2022/02/06 05:13:14;;;;;;;;;;;;;;;3.15;77.99;96900.00;5057579;28;19970;-63
2022/02/06 05:15:18;;;;;;;;;;;;;;;3.21;78.19;96894.94;5045414;28;20349;-64
2022/02/06 05:25:32;;;;;;;;;;;;;;;3.14;78.06;96868.13;5073839;28;20000;-63
2022/02/06 05:28:23;;;;;;;;;;;;;;;3.12;77.95;96872.69;5064367;28;19916;-64
2022/02/06 05:33:13;;;;;;;;;;;;;;;3.16;78.16;96876.53;5057500;28;19996;-63
2022/02/06 05:35:39;;;;;;;;;;;;;;;3.11;77.91;96871.09;5056410;28;19931;-63
2022/02/06 05:38:05;;;;;;;;;;;;;;;3.18;77.94;96876.34;5069785;28;19961;-63
2022/02/06 05:40:30;;;;;;;;;;;;;;;3.12;78.17;96883.03;5072614;28;19916;-63
2022/02/06 05:42:55;;;;;;;;;;;;;;;3.21;77.51;96886.34;5074630;28;19986;-63
2022/02/06 05:45:21;;;;;;;;;;;;;;;3.13;77.76;96889.81;5076391;28;19917;-63
2022/02/06 05:47:47;;;;;;;;;;;;;;;3.26;78.13;96890.03;5075977;28;19923;-63
2022/02/06 05:50:16;;;;;;;;;;;;;;;3.18;78.36;96903.03;5042255;28;19924;-63
2022/02/06 05:52:41;;;;;;;;;;;;;;;3.22;77.70;96906.91;5058177;28;19929;-63
2022/02/06 05:55:08;;;;;;;;;;;;;;;3.26;78.06;96923.69;5075372;28;20380;-63
2022/02/06 05:57:33;;;;;;;;;;;;;;;3.16;78.60;96910.22;5057212;28;19946;-63
2022/02/06 05:59:59;;;;;;;;;;;;;;;3.22;78.03;96908.69;5062318;28;19991;-63
2022/02/06 06:02:24;;;;;;;;;;;;;;;3.26;78.28;96910.75;5058259;28;19923;-63
2022/02/06 06:04:49;;;;;;;;;;;;;;;3.24;78.47;96897.16;5067445;28;19935;-63
2022/02/06 06:07:15;;;;;;;;;;;;;;;3.24;77.91;96894.56;5075458;28;19923;-62
2022/02/06 06:09:40;;;;;;;;;;;;;;;3.30;77.69;96891.28;5064565;28;20296;-63
2022/02/06 06:12:05;;;;;;;;;;;;;;;3.32;78.14;96893.69;5055463;28;19916;-63
2022/02/06 06:14:31;;;;;;;4.90;1.73;;;;;;;3.39;77.48;96889.41;5054003;28;20759;-63
2022/02/06 06:16:57;;;;;;;2.57;1.50;;;;;;;3.48;77.06;96870.19;5055835;28;20209;-63
2022/02/06 06:19:22;;;;;;;4.43;1.50;;;;;;;3.45;77.18;96883.53;5054882;28;20193;-63
2022/02/06 06:21:53;;;;;;;2.43;2.23;;;;;;;3.37;77.01;96875.03;5053678;28;20185;-63
2022/02/06 06:24:21;;;;;;;4.10;1.50;;;;;;;3.43;78.04;96875.13;5054817;28;20239;-63
2022/02/06 06:26:47;;;;;;;2.27;1.60;;;;;;;3.49;77.84;96866.63;5059094;28;20178;-63
2022/02/06 06:29:12;;;;;;;3.50;1.70;;;;;;;3.41;78.14;96878.84;5038925;28;20255;-63
2022/02/06 06:31:37;;;;;;;2.60;1.50;;;;;;;3.46;77.70;96873.94;5074135;28;20315;-63
2022/02/06 06:34:03;;;;;;;3.67;1.40;;;;;;;3.53;77.54;96883.41;5063695;28;20217;-63
2022/02/06 06:36:31;;;;;;;4.67;1.40;;;;;;;3.51;77.03;96887.94;5069879;28;20513;-63
2022/02/06 06:38:56;;;;;;;2.27;1.60;;;;;;;3.50;77.92;96868.22;5074021;28;20654;-63
2022/02/06 06:41:21;;;;;;;3.90;1.53;;;;;;;3.53;76.95;96878.22;5069507;28;20272;-64
2022/02/06 06:43:47;;;;;;;3.13;1.20;;;;;;;3.60;76.78;96886.91;5036599;28;20217;-63
2022/02/06 06:46:12;;;;;;;8.67;1.93;;;;;;;3.59;77.32;96872.31;5057916;28;20631;-63
2022/02/06 06:48:39;;;;;;;1.70;1.60;;;;;;;3.56;77.05;96851.16;5074713;28;20528;-63
2022/02/06 06:51:05;;;;;;;3.93;1.77;;;;;;;3.55;76.30;96849.56;5073551;28;20185;-63
2022/02/06 06:53:31;;;;;;;2.97;1.80;;;;;;;3.62;76.61;96842.66;5074047;28;20189;-63
2022/02/06 06:56:05;;;;;;;1.93;1.30;;;;;;;3.56;76.52;96833.03;5066282;28;20196;-63
2022/02/06 06:58:36;;;;;;;2.93;1.37;;;;;;;3.51;76.71;96832.78;5073574;28;20173;-63
2022/02/06 07:03:31;;;;;;;3.80;1.80;;;;;;;3.59;75.31;96851.59;5069368;28;20740;-63
2022/02/06 07:05:58;;;;;;;3.10;1.30;;;;;;;3.67;75.03;96842.94;5037301;28;20572;-63
2022/02/06 07:08:24;;;;;;;6.03;1.40;;;;;;;3.75;75.06;96838.44;5054021;28;20202;-63
2022/02/06 07:10:50;;;;;;;4.63;1.40;;;;;;;3.69;75.95;96839.16;5054072;28;20186;-62
2022/02/06 07:13:18;;;;;;;2.07;1.27;;;;;;;3.81;75.13;96843.88;5069317;28;20182;-63
2022/02/06 07:15:44;;;;;;;4.63;1.70;;;;;;;3.78;75.48;96839.06;5053843;28;20214;-63
2022/02/06 07:18:09;;;;;;;2.20;1.17;;;;;;;3.87;75.26;96840.53;5053586;28;20264;-63
2022/02/06 07:20:36;;;;;;;4.87;1.37;;;;;;;3.91;75.34;96832.22;5054182;28;20281;-63
2022/02/06 07:23:03;;;;;;;3.07;1.73;;;;;;;3.94;74.57;96831.84;5054788;28;20213;-63
2022/02/06 07:25:29;;;;;;;4.37;1.83;;;;;;;4.01;75.38;96826.75;5053867;28;20186;-63
2022/02/06 07:27:55;;;;;;;3.43;1.40;;;;;;;3.98;75.01;96821.91;5065902;28;20243;-63
2022/02/06 07:30:21;;;;;;;3.27;1.30;;;;;;;3.97;75.21;96821.09;5071807;28;20395;-64
2022/02/06 07:32:47;;;;;;;3.20;1.50;;;;;;;4.18;73.97;96812.53;5052592;28;20881;-63
2022/02/06 07:35:13;;;;;;;2.33;1.50;;;;;;;4.22;73.48;96810.38;5071718;28;20388;-65
2022/02/06 07:37:49;;;;;;;3.90;1.60;;;;;;;4.31;73.21;96817.03;5071312;28;20441;-63
2022/02/06 07:40:15;;;;;;;3.60;1.30;;;;;;;4.50;75.97;96806.84;5053563;28;20432;-64
2022/02/06 07:42:41;;;;;;;2.42;1.30;;;;;;;6.88;83.94;96780.59;5052930;28;21043;-66
2022/02/06 07:45:07;;;;;;;3.67;1.40;;;;;;;5.64;69.67;96774.28;5052075;28;20476;-64
2022/02/06 07:47:33;;;;;;;1.85;1.40;;;;;;;5.07;70.80;96781.66;5059118;28;20545;-65
2022/02/06 07:50:03;;;;;;;3.35;1.38;;;;;;;4.84;71.55;96769.75;5071869;28;20423;-64
2022/02/06 07:52:28;;;;;;;4.55;1.33;;;;;;;4.62;72.91;96751.81;5063717;28;20400;-64
2022/02/06 07:54:54;;;;;;;4.32;1.60;;;;;;;4.73;72.58;96749.50;5053309;28;20406;-64
2022/02/06 07:57:20;;;;;;;5.38;1.60;;;;;;;4.77;72.55;96744.72;5071537;28;20865;-63
2022/02/06 07:59:46;;;;;;;4.35;1.58;;;;;;;4.82;72.05;96745.75;5071785;28;20406;-65
2022/02/06 08:02:12;;;;;;;5.97;1.38;;;;;;;4.98;71.44;96748.03;5068336;28;20391;-65
2022/02/06 08:04:38;;;;;;;2.92;1.58;;;;;;;4.95;71.94;96745.84;5071564;28;20969;-65
2022/02/06 08:07:05;;;;;;;2.70;1.42;;;;;;;4.87;72.15;96725.19;5071475;28;20395;-65
2022/02/06 08:12:03;;;;;;;4.03;1.35;;;;;;;5.10;71.47;96732.72;5067487;28;20888;-67
2022/02/06 08:17:12;;;;;;;3.85;1.52;;;;;;;4.97;71.92;96730.84;5062844;28;20400;-65
2022/02/06 08:19:37;;;;;;;2.90;1.40;;;;;;;5.10;71.71;96730.09;5064274;28;20392;-66
2022/02/06 08:22:03;;;;;;;4.10;1.17;;;;;;;5.16;71.64;96731.13;5055556;28;20403;-67
2022/02/06 08:24:28;;;;;;;3.50;1.35;;;;;;;5.32;71.10;96729.00;5050061;28;20775;-65
2022/02/06 08:26:53;;;;;;;2.53;1.40;;;;;;;5.26;71.32;96718.56;5071401;28;20463;-64
2022/02/06 08:29:19;;;;;;;5.57;1.50;;;;;;;5.20;71.38;96704.56;5071028;28;20403;-65
2022/02/06 08:31:44;;;;;;;4.40;1.40;;;;;;;5.23;71.25;96705.97;5057586;28;20393;-64
2022/02/06 08:34:10;;;;;;;3.20;1.40;;;;;;;5.31;70.89;96698.00;5052281;28;20904;-64
2022/02/06 08:36:35;;;;;;;3.17;1.40;;;;;;;5.29;70.65;96713.81;5051053;28;20412;-64
2022/02/06 08:39:01;;;;;;;2.53;1.23;;;;;;;5.37;70.50;96705.81;5051044;28;20465;-64
2022/02/06 08:41:26;;;;;;;3.70;1.77;;;;;;;5.38;70.90;96707.44;5051766;28;20389;-64
2022/02/06 08:43:52;;;;;;;4.63;1.33;;;;;;;5.44;70.51;96703.25;5048989;28;20543;-63
2022/02/06 08:46:18;;;;;;;2.20;1.30;;;;;;;5.64;69.29;96696.28;5075070;28;20578;-64
2022/02/06 08:48:44;;;;;;;3.78;1.30;;;;;;;5.66;69.27;96690.88;5074895;28;20912;-65
2022/02/06 08:51:09;;;;;;;3.63;1.30;;;;;;;5.70;69.22;96686.88;5066123;28;20494;-66
2022/02/06 08:53:35;;;;;;;5.40;1.47;;;;;;;5.80;68.79;96680.28;5066911;28;20402;-65
2022/02/06 08:56:00;;;;;;;3.47;1.30;;;;;;;6.08;67.94;96694.94;5041821;28;20403;-64
2022/02/06 08:58:26;;;;;;;2.15;1.40;;;;;;;5.97;68.36;96693.75;5054517;28;20469;-64
2022/02/06 09:00:51;;;;;;;1.40;1.20;;;;;;;5.77;68.55;96691.09;5054524;28;20539;-66
2022/02/06 09:03:16;;;;;;;3.97;1.40;;;;;;;5.80;68.50;96687.28;5064007;28;20456;-65
2022/02/06 09:05:43;;;;;;;2.83;1.23;;;;;;;5.97;67.76;96675.53;5062719;28;20447;-65
2022/02/06 09:08:09;;;;;;;4.93;1.40;;;;;;;5.93;68.27;96686.53;5055237;28;20393;-66
2022/02/06 09:10:35;;;;;;;2.47;1.37;;;;;;;6.01;67.88;96681.97;5073129;28;20390;-66
2022/02/06 09:13:01;;;;;;;3.70;1.40;;;;;;;6.33;66.87;96671.72;5068293;28;20405;-66
2022/02/06 09:15:26;;;;;;;3.10;1.30;;;;;;;6.31;66.67;96674.50;5055202;28;20920;-66
2022/02/06 09:17:52;;;;;;;3.47;1.40;;;;;;;6.26;67.09;96693.34;5067491;28;20384;-66
2022/02/06 09:20:17;;;;;;;3.25;1.20;;;;;;;5.98;67.39;96682.34;5059243;28;20755;-67
2022/02/06 09:22:43;;;;;;;3.13;1.23;;;;;;;6.01;67.85;96670.75;5054821;28;20398;-65
2022/02/06 09:25:10;;;;;;;1.63;1.33;;;;;;;6.00;67.93;96675.16;5059344;28;20401;-66
2022/02/06 09:27:36;;;;;;;1.85;1.20;;;;;;;5.98;68.30;96673.72;5060653;28;20492;-66
2022/02/06 09:30:17;;;;;;;2.70;1.30;;;;;;;5.99;67.72;96657.13;5072250;28;20498;-66
2022/02/06 09:35:10;;;;;;;2.90;1.40;;;;;;;5.99;68.26;96654.53;5072506;28;20482;-65
2022/02/06 09:37:35;;;;;;;1.70;1.10;;;;;;;6.21;67.89;96654.13;5062870;28;20397;-67
2022/02/06 09:40:03;;;;;;;3.85;1.20;;;;;;;6.26;67.46;96648.31;5061391;28;20401;-65
2022/02/06 09:42:29;;;;;;;2.05;1.20;;;;;;;6.29;67.62;96629.69;5054757;28;20748;-66
2022/02/06 09:44:56;;;;;;;3.55;1.40;;;;;;;6.46;67.23;96627.47;5072488;28;20404;-66
2022/02/06 09:47:27;;;;;;;1.70;1.15;;;;;;;6.53;67.05;96642.03;5072176;28;20396;-66
2022/02/06 09:49:53;;;;;;;3.22;1.20;;;;;;;6.68;66.52;96618.38;5062341;28;20402;-65
2022/02/06 09:52:25;;;;;;;3.47;1.13;;;;;;;6.42;67.12;96621.84;5054031;28;20402;-66
2022/02/06 09:54:55;;;;;;;5.00;1.30;;;;;;;6.55;67.34;96623.63;5058470;28;20403;-66
2022/02/06 09:57:28;;;;;;;3.22;1.33;;;;;;;6.70;66.43;96624.16;5065200;28;20406;-65
2022/02/06 09:59:55;;;;;;;4.45;1.50;;;;;;;6.62;67.04;96620.00;5063351;28;20448;-69
2022/02/06 10:02:26;;;;;;;6.05;1.30;;;;;;;6.84;66.26;96609.28;5054501;28;20404;-66
2022/02/06 10:04:53;;;;;;;3.47;1.10;;;;;;;6.81;66.65;96601.88;5061008;28;20415;-65
2022/02/06 10:07:28;;;;;;;4.67;1.30;;;;;;;6.99;66.19;96584.56;5074243;28;20469;-65
2022/02/06 10:10:00;;;;;;;2.38;1.10;;;;;;;6.75;66.73;96574.03;5061827;28;20406;-66
2022/02/06 10:12:30;;;;;;;3.55;1.13;;;;;;;6.89;66.31;96570.38;5057599;28;20398;-65
2022/02/06 10:14:56;;;;;;;3.28;1.08;;;;;;;7.03;66.60;96562.28;5064128;28;20385;-66
2022/02/06 10:17:24;;;;;;;1.98;1.20;;;;;;;6.87;66.46;96570.59;5053363;28;20393;-65
2022/02/06 10:19:54;;;;;;;2.47;1.30;;;;;;;7.02;66.08;96562.50;5065687;28;20398;-66
2022/02/06 10:22:36;;;;;;;3.38;1.30;;;;;;;6.85;66.45;96556.19;5072986;28;20741;-65
2022/02/06 10:25:08;;;;;;;1.57;1.00;;;;;;;6.86;66.54;96540.34;5054746;28;20915;-65
2022/02/06 10:28:09;;;;;;;1.98;1.10;;;;;;;6.89;66.31;96531.31;5058563;28;21068;-65
2022/02/06 10:30:42;;;;;;;1.90;1.00;;;;;;;7.06;66.46;96522.00;5052964;28;20404;-64
2022/02/06 10:33:13;;;;;;;2.00;1.00;;;;;;;7.04;65.84;96516.97;5062995;28;20463;-65
2022/02/06 10:35:43;;;;;;;1.52;1.00;;;;;;;7.01;66.26;96514.00;5071351;28;20392;-65
2022/02/06 10:38:29;;;;;;;2.83;1.25;;;;;;;6.97;66.49;96523.22;5041716;28;20480;-65
2022/02/06 10:41:18;;;;;;;3.90;1.02;;;;;;;6.99;67.07;96508.19;5066713;28;20409;-65
2022/02/06 10:43:57;;;;;;;2.53;1.08;;;;;;;6.96;66.02;96506.03;5066943;28;20466;-66
2022/02/06 10:46:25;;;;;;;2.22;1.10;;;;;;;6.92;66.96;96512.66;5056683;28;20427;-65
2022/02/06 10:49:00;;;;;;;2.42;1.20;;;;;;;7.10;66.38;96510.94;5073036;28;20399;-65
2022/02/06 10:51:34;;;;;;;1.40;1.00;;;;;;;7.19;66.14;96503.63;5066932;28;20453;-65
2022/02/06 10:54:00;;;;;;;2.47;1.17;;;;;;;7.00;66.52;96492.38;5052661;28;20402;-65
2022/02/06 10:56:25;;;;;;;2.43;1.10;;;;;;;6.81;67.55;96485.47;5057257;28;20412;-65
2022/02/06 10:59:02;;;;;;;4.35;1.10;;;;;;;7.25;66.33;96476.72;5051179;28;20920;-65
2022/02/06 11:01:30;;;;;;;2.38;1.05;;;;;;;7.25;66.55;96483.75;5069180;28;20391;-65
2022/02/06 11:04:14;;;;;;;4.20;1.10;;;;;;;7.20;66.64;96473.97;5072563;28;20411;-65
2022/02/06 11:06:45;;;;;;;2.60;1.10;;;;;;;7.44;66.29;96456.72;5052375;28;20393;-66
2022/02/06 11:09:24;;;;;;;2.20;1.00;;;;;;;7.58;65.72;96452.19;5053058;28;20443;-66
2022/02/06 11:11:50;;;;;;;2.20;1.20;;;;;;;7.26;66.08;96441.03;5063997;28;20411;-66
2022/02/06 11:14:21;;;;;;;1.20;0.90;;;;;;;7.15;66.97;96439.13;5054438;28;20403;-66
2022/02/06 11:16:49;;;;;;;1.90;0.95;;;;;;;7.26;66.64;96430.63;5071519;28;20395;-66
2022/02/06 11:19:19;;;;;;;5.03;1.30;;;;;;;7.19;67.40;96427.28;5070140;28;20738;-65
2022/02/06 11:21:46;;;;;;;1.80;1.13;;;;;;;7.42;66.53;96422.25;5059903;28;20457;-68
2022/02/06 11:24:20;;;;;;;2.58;1.10;;;;;;;7.47;66.25;96420.56;5053294;28;20447;-66
2022/02/06 11:26:46;;;;;;;3.47;1.20;;;;;;;7.15;67.15;96429.50;5051903;28;20385;-67
2022/02/06 11:29:12;;;;;;;1.30;0.90;;;;;;;7.01;67.34;96415.00;5052016;28;20393;-67
2022/02/06 11:31:38;;;;;;;2.15;1.20;;;;;;;7.18;67.53;96408.25;5071439;28;20778;-67
2022/02/06 11:34:04;;;;;;;2.00;1.05;;;;;;;7.25;67.05;96406.34;5055097;28;20838;-66
2022/02/06 11:45:29;;;;;;;1.70;1.10;;;;;;;7.37;66.35;96375.16;5065788;28;20420;-70
2022/02/06 11:48:04;;;;;;;2.83;1.13;;;;;;;7.19;67.21;96368.13;5055142;28;20395;-67
2022/02/06 11:50:32;;;;;;;2.50;1.10;;;;;;;7.48;66.69;96362.22;5052114;28;20765;-66
2022/02/06 11:53:00;;;;;;;1.80;1.30;;;;;;;7.53;66.35;96351.13;5051169;28;20444;-67
2022/02/06 11:55:47;;;;;;;2.42;1.15;;;;;;;7.72;66.20;96344.88;5057855;28;20415;-67
2022/02/06 11:58:25;;;;;;;1.55;1.05;;;;;;;7.45;66.32;96347.00;5065042;28;20409;-72
2022/02/06 12:01:06;;;;;;;4.73;1.20;;;;;;;7.62;66.60;96349.03;5056453;28;20395;-67
2022/02/06 12:03:47;;;;;;;0.90;0.90;;;;;;;7.56;66.72;96329.03;5063868;28;20404;-67
2022/02/06 12:06:12;;;;;;;1.10;1.00;;;;;;;7.61;66.79;96337.00;5043706;28;20397;-67
2022/02/06 12:08:43;;;;;;;2.25;0.95;;;;;;;7.39;67.42;96316.59;5068863;28;20387;-66
2022/02/06 12:11:12;;;;;;;0.80;0.80;;;;;;;7.33;67.78;96325.28;5070405;28;20449;-67
2022/02/06 12:13:38;;;;;;;1.52;1.00;;;;;;;7.49;67.29;96303.84;5070652;28;20422;-67
2022/02/06 12:16:06;;;;;;;1.52;0.98;;;;;;;7.55;66.73;96299.56;5051010;28;20821;-67
2022/02/06 12:18:39;;;;;;;2.50;1.00;;;;;;;7.77;66.40;96297.28;5068515;28;20868;-67
2022/02/06 12:21:21;;;;;;;1.65;1.10;;;;;;;7.70;66.24;96284.31;5053616;28;20901;-68
2022/02/06 12:23:50;;;;;;;1.58;1.00;;;;;;;7.40;67.75;96286.91;5053496;28;20415;-66
2022/02/06 12:26:31;;;;;;;2.65;1.20;;;;;;;7.40;67.30;96266.06;5069091;28;20868;-68
2022/02/06 12:29:11;;;;;;;2.25;1.10;;;;;;;7.48;67.57;96273.56;5068742;28;20384;-67
2022/02/06 12:32:05;;;;;;;1.10;0.90;;;;;;;7.66;67.04;96251.06;5061924;28;20399;-67
2022/02/06 12:37:36;;;;;;;0.90;0.90;;;;;;;7.50;67.03;96221.19;5049685;28;20399;-66
2022/02/06 12:40:04;;;;;;;1.17;0.80;;;;;;;7.65;66.39;96234.63;5069761;28;20876;-67
2022/02/06 12:42:36;;;;;;;2.03;0.93;;;;;;;7.52;66.73;96219.94;5055045;28;20404;-67
2022/02/06 12:45:04;;;;;;;2.80;1.08;;;;;;;7.67;66.10;96203.13;5033041;28;20409;-70
2022/02/06 12:47:30;;;;;;;1.60;0.90;;;;;;;7.80;65.68;96202.94;5050892;28;20396;-67
2022/02/06 12:49:57;;;;;;;2.22;0.80;;;;;;;7.68;66.29;96195.06;5068485;28;20502;-67
2022/02/06 12:52:23;;;;;;;1.25;0.80;;;;;;;7.73;66.50;96189.19;5064969;28;20739;-69
2022/02/06 12:54:48;;;;;;;1.60;0.82;;;;;;;7.89;66.13;96199.78;5052184;28;20868;-68
2022/02/06 12:57:19;;;;;;;1.67;0.93;;;;;;;7.67;66.10;96193.47;5051032;28;20417;-66
2022/02/06 12:59:44;;;;;;;3.33;0.80;;;;;;;7.45;66.29;96180.16;5062079;28;20384;-68
2022/02/06 13:02:11;;;;;;;0.93;0.80;;;;;;;7.60;66.58;96160.69;5068609;28;20471;-67
2022/02/06 13:04:41;;;;;;;1.10;0.77;;;;;;;7.59;66.72;96177.34;5066016;28;20442;-67
2022/02/06 13:07:07;;;;;;;0.70;0.70;;;;;;;7.65;66.65;96173.84;5050613;28;20396;-67
2022/02/06 13:09:42;;;;;;;2.30;0.90;;;;;;;7.73;67.32;96166.50;5069868;28;20410;-66
2022/02/06 13:12:35;;;;;;;1.57;0.83;;;;;;;7.46;67.51;96162.69;5069623;28;20456;-66
2022/02/06 13:15:29;;;;;;;1.20;0.73;;;;;;;7.40;68.78;96142.72;5056228;28;20480;-66
2022/02/06 13:20:42;;;;;;;1.88;0.85;;;;;;;7.49;69.28;96138.78;5054140;28;20401;-66
2022/02/06 13:23:20;;;;;;;1.70;0.85;;;;;;;7.28;70.30;96116.63;5062540;28;20411;-66
2022/02/06 13:31:03;;;;;;;0.73;0.73;;;;;;;7.26;71.39;96100.41;5064677;28;20439;-65
2022/02/06 13:38:37;;;;;;;1.38;0.80;;;;;;;6.90;73.37;96090.88;5071022;28;20394;-66
2022/02/06 13:41:16;;;;;;;1.70;0.98;;;;;;;6.91;73.78;96096.88;5054226;28;20403;-65
2022/02/06 13:43:42;;;;;;;1.13;0.88;;;;;;;6.87;73.93;96080.09;5073007;28;20448;-66
2022/02/06 13:46:23;;;;;;;1.33;0.75;;;;;;;6.95;74.53;96078.00;5063214;28;20420;-65
2022/02/06 13:48:49;;;;;;;0.88;0.88;;;;;;;7.04;74.78;96068.03;5071864;28;20401;-66
2022/02/06 13:51:16;;;;;;;0.70;0.70;;;;;;;6.91;75.32;96079.41;5055357;28;20397;-65
2022/02/06 13:53:58;;;;;;;1.30;0.73;;;;;;;6.78;75.28;96040.53;5056353;28;20394;-65
2022/02/06 13:56:24;;;;;;;1.90;0.90;;;;;;;6.79;76.44;96062.19;5063917;28;20391;-66
2022/02/06 13:59:05;;;;;;;0.60;0.60;;;;;;;6.81;76.91;96054.91;5065083;28;20381;-65
2022/02/06 14:01:51;;;;;;;0.70;0.70;;;;;;;6.64;77.08;96032.09;5055260;28;20392;-65
2022/02/06 14:04:26;;;;;;;1.50;0.80;;;;;;;6.76;77.56;96046.97;5070964;28;20404;-65
2022/02/06 14:07:02;;;;;;;0.95;0.80;;;;;;;6.72;77.40;96040.63;5054984;28;20394;-65
2022/02/06 14:09:31;;;;;;;2.70;0.90;;;;;;;6.66;78.46;96022.28;5065636;28;20417;-65
2022/02/06 14:11:58;;;;;;;1.25;1.13;;;;;;;6.71;79.47;96042.44;5073589;28;20425;-66
2022/02/06 14:14:25;;;;;;;1.00;1.00;;;;;;;6.48;80.49;96017.09;5059598;28;20908;-65
2022/02/06 14:16:56;;;;;;;0.90;0.90;;;;;;;6.50;80.90;96004.66;5053832;28;20428;-66
2022/02/06 14:19:45;;;;;;;1.20;0.90;;;;;;;6.28;82.38;96013.94;5065149;28;20412;-66
2022/02/06 14:22:14;;;;;;;1.17;0.90;;;;;;;6.19;83.70;96016.03;5053653;28;20514;-66
2022/02/06 14:25:07;;;;;;;1.40;0.80;;;;;;;6.09;83.34;96017.56;5067872;28;20414;-66
2022/02/06 14:27:39;;;;;;;0.85;0.85;;;;;;;6.05;84.23;95999.00;5049096;28;20416;-66
2022/02/06 14:30:16;;;;;;;1.02;0.98;;;;;;;6.01;83.74;95997.06;5051408;28;20406;-67
2022/02/06 14:33:08;;;;;;;2.20;1.20;;;;;;;6.10;85.16;95999.13;5070514;28;20403;-66
2022/02/06 14:35:42;;;;;;;2.00;1.80;;;;;;;6.04;85.47;96015.59;5055985;28;20409;-66
2022/02/06 14:38:11;;;;;;;1.40;1.30;;;;;;;5.93;85.67;95977.31;5043965;28;20496;-66
2022/02/06 14:40:54;;;;;;;1.10;1.10;;;;;;;5.90;86.44;95997.78;5069747;28;20749;-69
2022/02/06 14:43:37;;;;;;;1.10;0.85;;;;;;;5.77;86.86;95980.47;5052159;28;20415;-66
2022/02/06 14:46:03;;;;;;;0.80;0.80;;;;;;;5.90;86.91;95982.16;5071443;28;20545;-65